Time;durP1;ratioP1;P1;durP2;ratioP2;P2;SDS_P1;SDS_P2;PMS_P1;PMS_P2;Temp;Humidity;BMP_temperature;BMP_pressure;BME280_temperature;BME280_humidity;BME280_pressure;Samples;Min_cycle;Max_cycle;Signal;HPM_P1;HPM_P2
2023/10/31 00:03:37;;;;;;;30.20;16.60;;;;;;;12.46;100.00;98782.86;215702;1286;140471;-83
2023/10/31 00:08:38;;;;;;;27.80;16.70;;;;;;;12.50;100.00;98778.84;214928;1284;140336;-84
2023/10/31 00:13:39;;;;;;;32.00;16.70;;;;;;;12.51;100.00;98773.14;215473;1285;139347;-84
2023/10/31 00:18:40;;;;;;;31.00;17.00;;;;;;;12.51;100.00;98754.61;215019;1291;142409;-84
2023/10/31 00:23:45;;;;;;;28.40;17.40;;;;;;;12.52;100.00;98745.98;215682;1285;139249;-85
2023/10/31 00:28:45;;;;;;;33.80;15.90;;;;;;;12.53;100.00;98729.42;215425;1285;140374;-83
2023/10/31 00:33:46;;;;;;;30.40;16.00;;;;;;;12.52;100.00;98710.73;215773;1288;140876;-83
2023/10/31 00:38:46;;;;;;;28.70;16.80;;;;;;;12.55;100.00;98700.03;215133;1286;140079;-83
2023/10/31 00:43:49;;;;;;;29.00;14.60;;;;;;;12.59;100.00;98693.23;215935;1285;139366;-83
2023/10/31 00:48:49;;;;;;;27.00;15.70;;;;;;;12.62;100.00;98696.94;215303;1288;144990;-83
2023/10/31 00:53:52;;;;;;;29.90;16.20;;;;;;;12.65;100.00;98680.46;215959;1286;139077;-84
2023/10/31 00:58:55;;;;;;;23.20;14.60;;;;;;;12.64;100.00;98675.83;215421;1288;140932;-86
2023/10/31 01:03:55;;;;;;;26.80;15.20;;;;;;;12.63;100.00;98663.27;218893;1285;139304;-84
2023/10/31 01:08:56;;;;;;;26.00;15.40;;;;;;;12.63;100.00;98645.45;218201;1285;140882;-84
2023/10/31 01:13:56;;;;;;;27.80;15.40;;;;;;;12.64;100.00;98640.13;218921;1285;139344;-84
2023/10/31 01:18:59;;;;;;;26.20;14.90;;;;;;;12.65;100.00;98632.30;218361;1285;141623;-84
2023/10/31 01:23:59;;;;;;;25.40;15.10;;;;;;;12.66;100.00;98626.66;217950;1285;139837;-83
2023/10/31 01:29:00;;;;;;;24.10;15.40;;;;;;;12.69;100.00;98608.84;215594;1286;140912;-84
2023/10/31 01:34:01;;;;;;;28.30;14.10;;;;;;;12.71;100.00;98602.96;215676;1286;139210;-86
2023/10/31 01:39:02;;;;;;;22.20;13.40;;;;;;;12.72;100.00;98595.13;215354;1289;141592;-85
2023/10/31 01:44:03;;;;;;;29.20;13.80;;;;;;;12.72;100.00;98584.86;215978;1286;139248;-84
2023/10/31 01:49:04;;;;;;;25.70;13.90;;;;;;;12.73;100.00;98583.89;215328;1285;140317;-83
2023/10/31 01:54:04;;;;;;;18.70;12.80;;;;;;;12.74;100.00;98564.80;215787;1286;140352;-85
2023/10/31 01:59:05;;;;;;;21.60;13.90;;;;;;;12.73;100.00;98547.38;215196;1285;140533;-83
2023/10/31 02:04:06;;;;;;;24.50;14.10;;;;;;;12.73;100.00;98533.33;215697;1288;139424;-83
2023/10/31 02:09:07;;;;;;;22.10;12.50;;;;;;;12.74;100.00;98522.98;215353;1286;142564;-83
2023/10/31 02:14:08;;;;;;;24.50;13.00;;;;;;;12.75;100.00;98514.43;215891;1285;139757;-86
2023/10/31 02:19:13;;;;;;;22.90;13.80;;;;;;;12.77;100.00;98508.62;215604;1285;142387;-83
2023/10/31 02:24:14;;;;;;;29.30;12.90;;;;;;;12.79;100.00;98489.19;216946;1287;139141;-83
2023/10/31 02:29:14;;;;;;;22.60;12.70;;;;;;;12.81;100.00;98473.97;215392;1285;140664;-83
2023/10/31 02:34:15;;;;;;;24.60;12.60;;;;;;;12.82;100.00;98464.87;215899;1286;139249;-84
2023/10/31 02:39:15;;;;;;;23.30;13.20;;;;;;;12.83;100.00;98456.58;215341;1285;140614;-84
2023/10/31 02:44:16;;;;;;;22.20;12.10;;;;;;;12.82;100.00;98455.71;215873;1285;140289;-84
2023/10/31 02:49:16;;;;;;;23.10;12.70;;;;;;;12.81;100.00;98446.69;215462;1286;141659;-83
2023/10/31 02:54:17;;;;;;;25.50;11.80;;;;;;;12.84;100.00;98440.84;215818;1286;139092;-83
2023/10/31 02:59:17;;;;;;;22.40;12.80;;;;;;;12.86;100.00;98428.39;215274;1288;140554;-84
2023/10/31 03:04:18;;;;;;;22.80;11.20;;;;;;;12.88;100.00;98425.95;215779;1288;139358;-83
2023/10/31 03:09:18;;;;;;;17.50;11.80;;;;;;;12.90;100.00;98419.52;215395;1285;140445;-83
2023/10/31 03:14:19;;;;;;;18.30;11.40;;;;;;;12.91;100.00;98411.42;215817;1285;139240;-83
2023/10/31 03:19:19;;;;;;;20.60;11.40;;;;;;;12.93;100.00;98409.42;215490;1285;140917;-83
2023/10/31 03:24:20;;;;;;;22.10;10.80;;;;;;;12.95;100.00;98401.30;216058;1285;139542;-83
2023/10/31 03:29:20;;;;;;;20.40;10.70;;;;;;;12.98;100.00;98397.46;215685;1286;140576;-83
2023/10/31 03:34:21;;;;;;;26.00;11.00;;;;;;;13.01;100.00;98398.63;215914;1286;139202;-83
2023/10/31 03:39:22;;;;;;;23.70;12.70;;;;;;;13.03;100.00;98395.32;215530;1286;142390;-84
2023/10/31 03:44:22;;;;;;;23.20;11.10;;;;;;;13.06;100.00;98392.52;215800;1286;139331;-83
2023/10/31 03:49:23;;;;;;;18.50;10.70;;;;;;;13.08;100.00;98385.54;215029;1285;140872;-83
2023/10/31 03:54:23;;;;;;;21.80;12.00;;;;;;;13.10;100.00;98378.53;215764;1285;139734;-83
2023/10/31 03:59:24;;;;;;;19.40;11.10;;;;;;;13.12;100.00;98376.41;215146;1285;140836;-83
2023/10/31 04:04:24;;;;;;;22.90;11.50;;;;;;;13.14;100.00;98372.10;215919;1286;139796;-83
2023/10/31 04:09:25;;;;;;;21.50;12.50;;;;;;;13.14;100.00;98370.10;215335;1288;141055;-82
2023/10/31 04:14:25;;;;;;;26.60;13.70;;;;;;;13.16;100.00;98374.79;215673;1286;139298;-83
2023/10/31 04:19:26;;;;;;;22.70;14.00;;;;;;;13.18;100.00;98374.66;215337;1286;140483;-84
2023/10/31 04:24:27;;;;;;;20.30;12.50;;;;;;;13.18;100.00;98370.20;215703;1286;139114;-84
2023/10/31 04:29:29;;;;;;;24.60;14.20;;;;;;;13.19;100.00;98368.69;215142;1285;140681;-84
2023/10/31 04:34:54;;;;;;;22.40;12.00;;;;;;;13.21;100.00;98362.40;215743;1285;139284;-86
2023/10/31 04:52:19;;;;;;;22.50;14.10;;;;;;;13.22;100.00;98343.52;213862;1296;98060;-90
2023/10/31 05:03:16;;;;;;;20.60;13.70;;;;;;;13.14;100.00;98325.93;214166;1285;139078;-87
2023/10/31 05:08:17;;;;;;;23.80;15.30;;;;;;;13.20;100.00;98331.65;214845;1288;141635;-87
2023/10/31 05:13:17;;;;;;;25.90;16.40;;;;;;;13.23;100.00;98327.67;215738;1288;97947;-87
2023/10/31 05:18:18;;;;;;;27.60;15.60;;;;;;;13.24;100.00;98331.43;214803;1285;140271;-86
2023/10/31 05:23:18;;;;;;;24.20;14.00;;;;;;;13.26;100.00;98327.91;215518;1288;139391;-87
2023/10/31 05:28:19;;;;;;;24.90;13.50;;;;;;;13.27;100.00;98325.10;214802;1286;140019;-87
2023/10/31 05:33:20;;;;;;;26.20;14.30;;;;;;;13.27;100.00;98316.97;215559;1286;140474;-87
2023/10/31 05:38:20;;;;;;;22.70;13.80;;;;;;;13.27;100.00;98318.56;214772;1285;140939;-87
2023/10/31 05:43:21;;;;;;;22.40;12.50;;;;;;;13.29;100.00;98318.17;215085;1285;97953;-87
2023/10/31 05:48:21;;;;;;;19.60;12.30;;;;;;;13.30;100.00;98315.06;214623;1285;140247;-88
2023/10/31 05:53:22;;;;;;;21.40;12.00;;;;;;;13.31;100.00;98313.27;215028;1288;140114;-89
2023/10/31 05:58:22;;;;;;;22.40;12.70;;;;;;;13.32;100.00;98311.90;214596;1286;141088;-88
2023/10/31 06:03:23;;;;;;;22.00;12.50;;;;;;;13.36;100.00;98305.70;215014;1284;139400;-89
2023/10/31 06:08:24;;;;;;;20.90;12.40;;;;;;;13.36;100.00;98309.64;214950;1285;140084;-89
2023/10/31 06:13:28;;;;;;;20.10;13.20;;;;;;;13.39;100.00;98317.84;215654;1285;98711;-87
2023/10/31 06:18:28;;;;;;;19.60;12.50;;;;;;;13.39;100.00;98323.74;215097;1285;140022;-90
2023/10/31 06:23:29;;;;;;;21.80;13.60;;;;;;;13.41;100.00;98326.37;215568;1287;139908;-87
2023/10/31 06:28:30;;;;;;;19.40;12.20;;;;;;;13.43;100.00;98322.58;214854;1284;140454;-89
2023/10/31 06:33:30;;;;;;;21.10;12.60;;;;;;;13.46;100.00;98320.59;215499;1288;139285;-88
2023/10/31 06:38:31;;;;;;;21.90;13.40;;;;;;;13.49;100.00;98317.33;216362;1286;140844;-96
2023/10/31 06:43:36;;;;;;;21.40;13.70;;;;;;;13.51;100.00;98317.17;218211;1285;97979;-92
2023/10/31 06:48:44;;;;;;;22.00;12.80;;;;;;;13.54;100.00;98317.46;216923;1288;140272;-96
2023/10/31 06:53:46;;;;;;;23.60;13.70;;;;;;;13.57;100.00;98318.48;217378;1286;139283;-94
2023/10/31 06:58:48;;;;;;;23.90;14.10;;;;;;;13.60;100.00;98322.80;217342;1285;140322;-95
2023/10/31 07:03:50;;;;;;;23.40;15.10;;;;;;;13.62;100.00;98318.13;218032;1288;139402;-93
2023/10/31 07:08:51;;;;;;;25.70;16.60;;;;;;;13.63;100.00;98317.05;216947;1285;140680;-95
2023/10/31 07:13:52;;;;;;;26.40;16.20;;;;;;;13.66;100.00;98323.04;217033;1286;138932;-95
2023/10/31 07:18:53;;;;;;;28.80;18.30;;;;;;;13.69;100.00;98323.10;216500;1286;140713;-94
2023/10/31 07:23:55;;;;;;;25.90;18.10;;;;;;;13.71;100.00;98325.41;217286;1288;139624;-94
2023/10/31 07:28:56;;;;;;;27.00;18.80;;;;;;;13.69;100.00;98328.23;216054;1286;140868;-91
2023/10/31 07:33:58;;;;;;;21.00;16.50;;;;;;;13.73;100.00;98339.38;217442;1284;139203;-94
2023/10/31 07:38:59;;;;;;;25.90;17.90;;;;;;;13.72;100.00;98350.05;216677;1288;141480;-92
2023/10/31 07:44:02;;;;;;;23.00;16.40;;;;;;;13.72;100.00;98362.57;216486;1285;139786;-91
2023/10/31 07:49:03;;;;;;;23.80;16.20;;;;;;;13.72;100.00;98373.00;216090;1286;140511;-91
2023/10/31 07:54:07;;;;;;;18.20;12.80;;;;;;;13.68;100.00;98376.19;215657;1286;140134;-92
2023/10/31 07:59:09;;;;;;;17.80;11.60;;;;;;;13.66;100.00;98380.23;215585;1285;141449;-90
2023/10/31 08:04:09;;;;;;;15.70;11.50;;;;;;;13.63;100.00;98384.14;215503;1288;140298;-90
2023/10/31 08:09:10;;;;;;;16.60;10.00;;;;;;;13.60;100.00;98387.23;215330;1285;139974;-89
2023/10/31 08:14:11;;;;;;;17.80;11.10;;;;;;;13.56;100.00;98389.89;215617;1286;139152;-90
2023/10/31 08:19:12;;;;;;;14.50;10.00;;;;;;;13.53;100.00;98388.02;214938;1286;140968;-90
2023/10/31 08:24:13;;;;;;;16.00;11.00;;;;;;;13.50;100.00;98391.48;215637;1288;139622;-91
2023/10/31 08:29:13;;;;;;;15.70;10.50;;;;;;;13.49;100.00;98407.88;215093;1288;140961;-89
2023/10/31 08:34:15;;;;;;;15.60;10.30;;;;;;;13.48;100.00;98414.54;215854;1286;139841;-88
2023/10/31 08:39:15;;;;;;;13.80;10.30;;;;;;;13.46;100.00;98424.48;215067;1286;140634;-90
2023/10/31 08:44:16;;;;;;;14.60;10.10;;;;;;;13.45;100.00;98426.07;215794;1286;140575;-89
2023/10/31 08:49:19;;;;;;;17.20;10.00;;;;;;;13.46;100.00;98423.45;215334;1288;141152;-94
2023/10/31 08:54:20;;;;;;;15.20;10.00;;;;;;;13.44;100.00;98423.68;215084;1288;139904;-93
2023/10/31 08:59:20;;;;;;;13.90;8.80;;;;;;;13.43;100.00;98434.77;214336;1288;142011;-91
2023/10/31 09:04:21;;;;;;;12.40;8.30;;;;;;;13.42;100.00;98439.08;215040;1291;139705;-90
2023/10/31 09:09:23;;;;;;;13.50;8.40;;;;;;;13.40;100.00;98444.01;214574;1286;140376;-91
2023/10/31 09:14:24;;;;;;;10.90;7.50;;;;;;;13.40;100.00;98461.02;215378;1286;139646;-91
2023/10/31 09:19:24;;;;;;;13.60;8.30;;;;;;;13.39;100.00;98469.94;215035;1285;140201;-92
2023/10/31 09:24:25;;;;;;;10.80;6.70;;;;;;;13.39;100.00;98483.11;215663;1288;139124;-94
2023/10/31 09:29:26;;;;;;;9.90;6.30;;;;;;;13.40;100.00;98477.04;215825;1288;140479;-90
2023/10/31 09:34:27;;;;;;;13.70;6.30;;;;;;;13.40;100.00;98478.58;216636;1286;139065;-93
2023/10/31 09:39:28;;;;;;;8.30;5.10;;;;;;;13.40;100.00;98480.56;215644;1285;140909;-87
2023/10/31 09:44:29;;;;;;;7.80;4.50;;;;;;;13.44;100.00;98491.89;215587;1288;138936;-91
2023/10/31 09:49:30;;;;;;;8.60;4.60;;;;;;;13.45;100.00;98511.20;215406;1286;139956;-92
2023/10/31 09:54:30;;;;;;;7.70;4.20;;;;;;;13.45;100.00;98528.17;216035;1288;139494;-92
2023/10/31 09:59:31;;;;;;;10.20;4.20;;;;;;;13.46;100.00;98540.46;215359;1288;140853;-90
2023/10/31 10:04:33;;;;;;;7.60;4.20;;;;;;;13.44;100.00;98548.02;216051;1288;139173;-92
2023/10/31 10:09:34;;;;;;;8.70;4.60;;;;;;;13.43;100.00;98550.11;215472;1286;140498;-89
2023/10/31 10:14:35;;;;;;;7.60;4.10;;;;;;;13.41;100.00;98560.98;215966;1286;139057;-88
2023/10/31 10:19:35;;;;;;;7.70;4.30;;;;;;;13.40;100.00;98568.37;215716;1288;140407;-92
2023/10/31 10:24:40;;;;;;;8.70;4.70;;;;;;;13.39;100.00;98576.20;215878;1288;138722;-90
2023/10/31 10:29:41;;;;;;;9.40;4.90;;;;;;;13.39;100.00;98572.48;215619;1286;140242;-96
2023/10/31 10:34:42;;;;;;;8.80;5.20;;;;;;;13.38;100.00;98574.57;215902;1286;139223;-92
2023/10/31 10:39:47;;;;;;;9.10;5.10;;;;;;;13.37;100.00;98563.85;215461;1286;141556;-92
2023/10/31 10:44:50;;;;;;;16.60;4.70;;;;;;;13.37;100.00;98574.05;215597;1286;140714;-91
2023/10/31 10:49:55;;;;;;;7.30;4.10;;;;;;;13.36;100.00;98581.48;215866;1286;141103;-95
2023/10/31 10:55:13;;;;;;;7.20;4.20;;;;;;;13.35;100.00;98598.41;216955;1286;108008;-89
2023/10/31 11:00:15;;;;;;;6.90;4.10;;;;;;;13.33;100.00;98599.66;216079;1288;141039;-91
2023/10/31 11:05:15;;;;;;;6.40;3.80;;;;;;;13.32;100.00;98603.09;217039;1289;139957;-91
2023/10/31 11:10:17;;;;;;;5.20;3.00;;;;;;;13.29;100.00;98617.08;217016;1288;140281;-93
2023/10/31 11:15:19;;;;;;;5.00;3.10;;;;;;;13.25;100.00;98623.40;216811;1289;140261;-92
2023/10/31 11:20:20;;;;;;;5.20;2.60;;;;;;;13.22;100.00;98637.16;216995;1288;139822;-90
2023/10/31 11:25:23;;;;;;;4.00;2.40;;;;;;;13.21;100.00;98644.70;217669;1288;98062;-92
2023/10/31 11:30:34;;;;;;;4.90;2.10;;;;;;;13.18;100.00;98656.13;216676;1288;139800;-94
2023/10/31 11:35:38;;;;;;;4.50;2.00;;;;;;;13.14;100.00;98657.12;217097;1289;139557;-92
2023/10/31 11:40:45;;;;;;;5.60;2.10;;;;;;;13.08;100.00;98662.38;216812;1289;140619;-94
2023/10/31 11:45:48;;;;;;;5.40;2.50;;;;;;;13.01;100.00;98654.84;217175;1285;139219;-94
2023/10/31 11:50:49;;;;;;;4.80;2.10;;;;;;;12.95;100.00;98670.39;215732;1288;141200;-91
2023/10/31 11:55:49;;;;;;;4.00;1.50;;;;;;;12.87;100.00;98678.41;216238;1289;97971;-91
2023/10/31 12:00:53;;;;;;;3.70;1.60;;;;;;;12.78;100.00;98690.15;215871;1288;140388;-92
2023/10/31 12:05:55;;;;;;;2.80;1.40;;;;;;;12.72;100.00;98701.02;216188;1289;139113;-91
2023/10/31 12:11:07;;;;;;;3.40;1.70;;;;;;;12.73;100.00;98723.09;215341;1286;140115;-91
2023/10/31 12:16:12;;;;;;;2.90;1.50;;;;;;;12.73;100.00;98728.27;215904;1286;139466;-91
2023/10/31 12:21:15;;;;;;;3.00;1.60;;;;;;;12.74;100.00;98730.95;216192;1286;139970;-92
2023/10/31 12:26:21;;;;;;;4.00;1.60;;;;;;;12.73;100.00;98730.41;216129;1286;139220;-91
2023/10/31 12:31:22;;;;;;;1.90;1.30;;;;;;;12.68;100.00;98728.48;216863;1288;138682;-94
2023/10/31 12:36:25;;;;;;;2.70;1.50;;;;;;;12.63;100.00;98728.61;216066;1288;139411;-95
2023/10/31 12:41:27;;;;;;;3.20;1.50;;;;;;;12.60;100.00;98742.41;215597;1286;140524;-95
2023/10/31 12:46:29;;;;;;;2.30;1.70;;;;;;;12.55;100.00;98753.89;216026;1285;138981;-93
2023/10/31 12:51:30;;;;;;;2.80;1.50;;;;;;;12.52;100.00;98758.91;215884;1284;140788;-92
2023/10/31 12:56:41;;;;;;;5.40;2.00;;;;;;;12.51;100.00;98762.01;217028;1288;139009;-94
2023/10/31 13:01:45;;;;;;;3.00;1.40;;;;;;;12.52;100.00;98764.98;216061;1288;140099;-95
2023/10/31 13:07:05;;;;;;;1.80;1.20;;;;;;;12.54;100.00;98775.10;216664;1285;138795;-94
2023/10/31 13:12:07;;;;;;;10.10;1.90;;;;;;;12.58;100.00;98775.73;216963;1288;138796;-92
2023/10/31 13:17:08;;;;;;;3.90;1.60;;;;;;;12.61;100.00;98777.94;215407;1288;140866;-88
2023/10/31 13:22:09;;;;;;;8.00;2.40;;;;;;;12.65;100.00;98786.28;217019;1286;139031;-93
2023/10/31 13:27:16;;;;;;;4.00;2.00;;;;;;;12.68;100.00;98789.68;217277;1288;140464;-96
2023/10/31 13:32:17;;;;;;;6.70;2.10;;;;;;;12.73;100.00;98791.85;217249;1286;139531;-93
2023/10/31 13:37:20;;;;;;;5.30;2.10;;;;;;;12.77;100.00;98799.73;216907;1285;140700;-96
2023/10/31 13:42:21;;;;;;;2.80;1.70;;;;;;;12.79;100.00;98800.14;216748;1288;138232;-92
2023/10/31 13:47:22;;;;;;;3.10;1.60;;;;;;;12.79;100.00;98803.54;216408;1285;140798;-96
2023/10/31 13:52:23;;;;;;;4.40;1.80;;;;;;;12.78;100.00;98799.22;216713;1286;139349;-93
2023/10/31 13:57:24;;;;;;;6.60;1.70;;;;;;;12.76;100.00;98804.80;217120;1286;140233;-92
2023/10/31 14:02:25;;;;;;;3.80;1.70;;;;;;;12.76;100.00;98803.92;216913;1288;139015;-93
2023/10/31 14:07:26;;;;;;;4.40;2.00;;;;;;;12.74;100.00;98807.60;216909;1289;140287;-94
2023/10/31 14:12:28;;;;;;;7.30;2.00;;;;;;;12.72;100.00;98811.59;217544;1288;139476;-92
2023/10/31 14:17:34;;;;;;;5.40;1.90;;;;;;;12.72;100.00;98818.28;216833;1288;140373;-93
2023/10/31 14:22:34;;;;;;;3.30;1.80;;;;;;;12.71;100.00;98819.73;216775;1285;138879;-91
2023/10/31 14:27:36;;;;;;;4.80;2.20;;;;;;;12.70;100.00;98821.27;216460;1286;140015;-96
2023/10/31 15:08:46;;;;;;;7.60;3.50;;;;;;;12.56;100.00;98845.07;216375;1289;140242;-88
2023/10/31 15:13:46;;;;;;;4.60;1.70;;;;;;;12.55;100.00;98842.50;215615;1290;97949;-84
2023/10/31 15:18:47;;;;;;;3.40;1.50;;;;;;;12.52;100.00;98832.14;214466;1288;140089;-84
2023/10/31 15:23:48;;;;;;;4.20;1.50;;;;;;;12.49;100.00;98835.30;215273;1294;139631;-84
2023/10/31 15:28:49;;;;;;;6.00;2.00;;;;;;;12.44;100.00;98847.30;214863;1289;141255;-84
2023/10/31 15:33:49;;;;;;;4.60;2.10;;;;;;;12.39;100.00;98851.84;215203;1291;139306;-84
2023/10/31 15:38:50;;;;;;;5.60;1.90;;;;;;;12.35;100.00;98857.52;214521;1291;140357;-83
2023/10/31 15:43:52;;;;;;;3.40;1.70;;;;;;;12.32;100.00;98864.90;215200;1289;106165;-83
2023/10/31 15:48:54;;;;;;;5.00;1.90;;;;;;;12.28;100.00;98873.73;214633;1289;140748;-83
2023/10/31 15:53:54;;;;;;;6.80;2.10;;;;;;;12.25;100.00;98887.83;215202;1291;138941;-85
2023/10/31 15:58:55;;;;;;;6.10;1.70;;;;;;;12.23;100.00;98890.08;215068;1291;141307;-88
2023/10/31 16:03:55;;;;;;;3.90;1.80;;;;;;;12.21;100.00;98898.23;214725;1291;140200;-84
2023/10/31 16:08:55;;;;;;;5.90;2.20;;;;;;;12.19;100.00;98910.49;214480;1292;140689;-87
2023/10/31 16:13:56;;;;;;;4.50;2.00;;;;;;;12.17;100.00;98911.94;215007;1290;104310;-84
2023/10/31 16:18:56;;;;;;;4.80;2.30;;;;;;;12.14;100.00;98914.52;214500;1291;140574;-82
2023/10/31 16:23:58;;;;;;;6.10;2.20;;;;;;;12.10;100.00;98919.72;215065;1289;138923;-82
2023/10/31 16:29:00;;;;;;;11.10;2.10;;;;;;;12.03;100.00;98922.30;214621;1291;140639;-84
2023/10/31 16:34:00;;;;;;;4.50;1.80;;;;;;;12.00;100.00;98931.11;215067;1292;140192;-84
2023/10/31 16:39:01;;;;;;;8.80;2.40;;;;;;;11.97;100.00;98931.16;214460;1294;139968;-85
2023/10/31 16:44:01;;;;;;;10.00;2.90;;;;;;;11.91;100.00;98933.16;215157;1294;105515;-85
2023/10/31 16:49:02;;;;;;;11.10;2.60;;;;;;;11.86;100.00;98940.52;214698;1292;140671;-85
2023/10/31 16:54:02;;;;;;;9.30;4.40;;;;;;;11.83;100.00;98953.95;214905;1293;139105;-85
2023/10/31 16:59:03;;;;;;;10.40;2.90;;;;;;;11.79;100.00;98957.31;214273;1291;141737;-84
2023/10/31 17:04:04;;;;;;;7.30;3.00;;;;;;;11.75;100.00;98956.45;215192;1289;139005;-84
2023/10/31 17:09:04;;;;;;;6.30;2.60;;;;;;;11.70;100.00;98964.64;214505;1293;142460;-89
2023/10/31 17:14:05;;;;;;;6.50;2.00;;;;;;;11.63;100.00;98961.99;215228;1291;97878;-85
2023/10/31 17:19:06;;;;;;;5.50;2.10;;;;;;;11.58;100.00;98964.20;214531;1294;141411;-85
2023/10/31 17:24:07;;;;;;;4.00;1.90;;;;;;;11.52;100.00;98969.70;215372;1288;138904;-89
2023/10/31 17:29:07;;;;;;;2.80;1.50;;;;;;;11.49;100.00;98972.19;214694;1289;141764;-85
2023/10/31 17:34:11;;;;;;;3.30;1.50;;;;;;;11.47;100.00;98977.36;214966;1289;138823;-87
2023/10/31 17:39:12;;;;;;;5.40;2.20;;;;;;;11.45;100.00;98988.02;214780;1291;140683;-87
2023/10/31 17:44:13;;;;;;;5.30;1.70;;;;;;;11.43;100.00;99009.83;216018;1292;105851;-86
2023/10/31 17:49:14;;;;;;;5.60;1.90;;;;;;;11.41;100.00;99032.45;214830;1292;140780;-84
2023/10/31 17:54:16;;;;;;;7.80;2.20;;;;;;;11.43;100.00;99061.31;215080;1291;139177;-83
2023/10/31 17:59:17;;;;;;;7.80;2.60;;;;;;;11.43;100.00;99068.00;214650;1290;140676;-85
2023/10/31 18:04:18;;;;;;;5.10;1.90;;;;;;;11.44;100.00;99068.15;214914;1292;139105;-86
2023/10/31 18:09:22;;;;;;;3.10;1.20;;;;;;;11.44;100.00;99079.16;214341;1292;140234;-86
2023/10/31 18:14:22;;;;;;;6.00;2.00;;;;;;;11.42;100.00;99075.71;217685;1288;139928;-84
2023/10/31 18:19:23;;;;;;;4.90;2.60;;;;;;;11.41;100.00;99074.39;217732;1291;140274;-85
2023/10/31 18:24:23;;;;;;;3.50;1.70;;;;;;;11.40;100.00;99084.50;218087;1290;138918;-86
2023/10/31 18:29:24;;;;;;;3.70;1.60;;;;;;;11.37;100.00;99098.61;217530;1290;140055;-86
2023/10/31 18:34:25;;;;;;;3.90;1.20;;;;;;;11.36;100.00;99115.15;217940;1289;138922;-87
2023/10/31 18:39:26;;;;;;;4.40;1.60;;;;;;;11.35;100.00;99127.44;217445;1291;140678;-85
2023/10/31 18:44:26;;;;;;;4.80;2.00;;;;;;;11.34;100.00;99135.41;216197;1292;139481;-85
2023/10/31 18:49:27;;;;;;;6.60;2.40;;;;;;;11.31;100.00;99139.23;214740;1294;250007;-86
2023/10/31 18:54:27;;;;;;;4.70;1.70;;;;;;;11.31;100.00;99149.93;215221;1294;138694;-88
2023/10/31 18:59:28;;;;;;;4.40;2.00;;;;;;;11.29;100.00;99160.96;215148;1289;140538;-84
2023/10/31 19:04:29;;;;;;;3.60;1.40;;;;;;;11.27;100.00;99169.80;215188;1288;139009;-88
2023/10/31 19:09:30;;;;;;;3.60;1.70;;;;;;;11.25;100.00;99174.39;216586;1292;139931;-84
2023/10/31 19:14:31;;;;;;;6.00;2.40;;;;;;;11.23;100.00;99177.23;215215;1292;139861;-86
2023/10/31 19:19:31;;;;;;;3.20;1.40;;;;;;;11.21;100.00;99189.38;214651;1292;140609;-84
2023/10/31 19:24:32;;;;;;;8.70;2.70;;;;;;;11.18;100.00;99194.23;215224;1292;139174;-85
2023/10/31 19:29:32;;;;;;;6.60;2.20;;;;;;;11.11;100.00;99199.64;214942;1294;140153;-87
2023/10/31 19:34:33;;;;;;;6.60;2.00;;;;;;;11.03;100.00;99218.77;217144;1289;139716;-85
2023/10/31 19:39:34;;;;;;;4.60;2.00;;;;;;;10.95;100.00;99225.45;214582;1294;139960;-84
2023/10/31 19:44:35;;;;;;;8.20;2.40;;;;;;;10.87;100.00;99244.08;215097;1294;139025;-85
2023/10/31 19:49:35;;;;;;;5.00;1.80;;;;;;;10.77;100.00;99252.42;214759;1289;140621;-85
2023/10/31 19:54:36;;;;;;;4.70;1.50;;;;;;;10.69;100.00;99259.58;215050;1294;139323;-88
2023/10/31 19:59:38;;;;;;;8.50;2.30;;;;;;;10.61;100.00;99263.49;214679;1292;141663;-87
2023/10/31 20:04:39;;;;;;;5.00;1.90;;;;;;;10.56;100.00;99266.91;215102;1289;139272;-88
2023/10/31 20:09:40;;;;;;;3.50;1.10;;;;;;;10.52;100.00;99268.35;214481;1295;140502;-86
2023/10/31 20:14:40;;;;;;;4.00;1.40;;;;;;;10.49;100.00;99279.46;215268;1293;139071;-86
2023/10/31 20:19:41;;;;;;;2.50;1.40;;;;;;;10.46;100.00;99285.53;214911;1293;141010;-86
2023/10/31 20:24:42;;;;;;;2.10;1.20;;;;;;;10.42;100.00;99284.38;215240;1289;139033;-86
2023/10/31 20:29:42;;;;;;;4.00;1.50;;;;;;;10.39;100.00;99287.45;214693;1292;141505;-86
2023/10/31 20:34:43;;;;;;;5.70;1.60;;;;;;;10.36;100.00;99289.53;216344;1291;139326;-86
2023/10/31 20:39:43;;;;;;;9.90;1.70;;;;;;;10.33;100.00;99297.41;214832;1290;141698;-87
2023/10/31 20:44:49;;;;;;;5.70;2.00;;;;;;;10.32;100.00;99303.22;215120;1293;138903;-90
2023/10/31 20:49:49;;;;;;;3.80;1.40;;;;;;;10.32;100.00;99311.24;214658;1293;140245;-86
2023/10/31 20:54:50;;;;;;;2.70;1.40;;;;;;;10.31;100.00;99315.41;215081;1289;140013;-87
2023/10/31 20:59:50;;;;;;;3.60;1.70;;;;;;;10.32;100.00;99329.55;214482;1290;141139;-86
2023/10/31 21:04:51;;;;;;;5.60;1.90;;;;;;;10.33;100.00;99329.46;217717;1289;139426;-85
2023/10/31 21:09:51;;;;;;;2.30;1.30;;;;;;;10.33;100.00;99327.81;217057;1291;140921;-87
2023/10/31 21:14:52;;;;;;;4.30;1.50;;;;;;;10.32;100.00;99329.47;215247;1289;138885;-87
2023/10/31 21:19:52;;;;;;;3.80;1.60;;;;;;;10.32;100.00;99338.83;215013;1294;140664;-88
2023/10/31 21:24:54;;;;;;;3.40;1.60;;;;;;;10.31;100.00;99341.66;215048;1291;138722;-92
2023/10/31 21:29:55;;;;;;;4.60;1.70;;;;;;;10.28;100.00;99340.64;214467;1291;139908;-88
2023/10/31 21:34:56;;;;;;;6.30;2.00;;;;;;;10.27;100.00;99340.88;215261;1288;139772;-89
2023/10/31 21:40:36;;;;;;;4.80;1.70;;;;;;;10.25;100.00;99337.98;214677;1289;141213;-90
2023/10/31 21:45:45;;;;;;;2.90;1.30;;;;;;;10.20;100.00;99335.81;215214;1288;139083;-89
2023/10/31 21:50:48;;;;;;;3.10;1.10;;;;;;;10.17;100.00;99338.34;214166;1289;140811;-90
2023/10/31 21:55:49;;;;;;;2.90;1.60;;;;;;;10.14;100.00;99346.36;215202;1291;97851;-90
2023/10/31 22:01:16;;;;;;;4.60;1.70;;;;;;;10.13;100.00;99353.77;214090;1289;142873;-91
2023/10/31 22:06:16;;;;;;;3.30;1.60;;;;;;;10.12;100.00;99357.85;215076;1290;139320;-89
2023/10/31 22:11:58;;;;;;;6.20;2.00;;;;;;;10.12;100.00;99367.97;214552;1292;227533;-91
2023/10/31 22:16:58;;;;;;;3.30;1.70;;;;;;;10.11;100.00;99371.67;214995;1291;139151;-89
2023/10/31 22:22:04;;;;;;;4.80;2.20;;;;;;;10.12;100.00;99375.59;214639;1288;140072;-92
2023/10/31 22:27:25;;;;;;;7.00;3.00;;;;;;;10.11;100.00;99382.27;215023;1293;144129;-90
2023/10/31 22:32:26;;;;;;;7.90;3.60;;;;;;;10.10;100.00;99388.10;215045;1294;108962;-91
2023/10/31 22:37:31;;;;;;;10.70;3.90;;;;;;;10.06;100.00;99385.13;214279;1291;144501;-89
2023/10/31 22:42:34;;;;;;;7.80;3.80;;;;;;;10.04;100.00;99385.66;214783;1291;139234;-89
2023/10/31 22:47:43;;;;;;;7.00;3.80;;;;;;;9.99;100.00;99393.98;214000;1293;141176;-92
2023/10/31 22:52:43;;;;;;;7.20;3.80;;;;;;;9.93;100.00;99397.70;215064;1290;139046;-90
2023/10/31 22:57:47;;;;;;;7.10;3.30;;;;;;;9.87;100.00;99400.08;214637;1288;140212;-89
2023/10/31 23:02:56;;;;;;;6.10;3.30;;;;;;;9.80;100.00;99398.05;217427;1290;137998;-92
2023/10/31 23:07:56;;;;;;;7.10;3.40;;;;;;;9.72;100.00;99403.24;214733;1290;140539;-89
2023/10/31 23:12:57;;;;;;;6.50;3.20;;;;;;;9.65;100.00;99406.48;215392;1291;138403;-89
2023/10/31 23:17:58;;;;;;;4.90;2.70;;;;;;;9.57;100.00;99411.91;214666;1289;140019;-89
2023/10/31 23:22:58;;;;;;;6.10;2.60;;;;;;;9.50;100.00;99426.90;214997;1289;139123;-92
2023/10/31 23:27:59;;;;;;;4.90;2.30;;;;;;;9.42;100.00;99426.59;214462;1293;140534;-93
2023/10/31 23:32:59;;;;;;;10.90;3.70;;;;;;;9.33;100.00;99433.27;215063;1291;138590;-91
2023/10/31 23:38:00;;;;;;;4.80;2.10;;;;;;;9.26;100.00;99436.23;214523;1291;141023;-88